createdAt,value
2018-12-29T00:01:31.653Z,41.43
2018-12-29T00:04:18.815Z,38.63
2018-12-29T00:07:06.008Z,40.57
2018-12-29T00:09:53.363Z,37.00
2018-12-29T00:12:40.500Z,38.43
2018-12-29T00:15:27.778Z,40.40
2018-12-29T00:18:14.760Z,38.03
2018-12-29T00:21:01.860Z,36.07
2018-12-29T00:23:48.891Z,38.03
2018-12-29T00:26:35.905Z,36.23
2018-12-29T00:29:23.069Z,38.07
2018-12-29T00:32:10.314Z,36.50
2018-12-29T00:34:57.297Z,34.93
2018-12-29T00:37:44.394Z,33.77
2018-12-29T00:40:31.553Z,32.83
2018-12-29T00:43:18.805Z,36.53
2018-12-29T00:46:06.171Z,42.37
2018-12-29T00:48:53.329Z,35.47
2018-12-29T00:51:40.555Z,38.27
2018-12-29T00:54:27.763Z,38.10
2018-12-29T00:57:14.863Z,35.40
2018-12-29T01:00:01.881Z,36.83
2018-12-29T01:02:49.224Z,37.30
2018-12-29T01:05:36.277Z,35.37
2018-12-29T01:08:23.390Z,36.37
2018-12-29T01:11:10.166Z,32.87
2018-12-29T01:13:56.887Z,37.10
2018-12-29T01:16:44.294Z,33.47
2018-12-29T01:19:31.489Z,35.47
2018-12-29T01:22:18.624Z,34.50
2018-12-29T01:25:05.510Z,35.47
2018-12-29T01:27:52.685Z,33.43
2018-12-29T01:30:39.581Z,32.40
2018-12-29T01:33:26.739Z,35.90
2018-12-29T01:36:13.708Z,39.13
2018-12-29T01:39:00.782Z,38.40
2018-12-29T01:41:47.522Z,37.23
2018-12-29T01:44:34.526Z,39.47
2018-12-29T01:47:21.989Z,39.50
2018-12-29T01:50:09.068Z,39.90
2018-12-29T01:52:55.922Z,35.63
2018-12-29T01:55:42.836Z,36.20
2018-12-29T01:58:29.589Z,40.83
2018-12-29T02:01:17.066Z,37.03
2018-12-29T02:04:04.452Z,37.77
2018-12-29T02:06:51.413Z,37.87
2018-12-29T02:09:38.662Z,37.50
2018-12-29T02:12:25.805Z,31.57
2018-12-29T02:15:12.877Z,35.53
2018-12-29T02:17:59.862Z,35.83
2018-12-29T02:20:46.957Z,36.03
2018-12-29T02:23:33.979Z,38.20
2018-12-29T02:26:21.273Z,36.13
2018-12-29T02:29:08.617Z,37.43
2018-12-29T02:31:56.099Z,32.53
2018-12-29T02:34:43.230Z,32.83
2018-12-29T02:37:30.300Z,38.10
2018-12-29T02:40:17.286Z,34.47
2018-12-29T02:43:04.320Z,32.13
2018-12-29T02:45:51.619Z,35.03
2018-12-29T02:48:38.565Z,30.03
2018-12-29T02:51:25.584Z,33.33
2018-12-29T02:54:12.594Z,31.23
2018-12-29T02:56:59.728Z,30.30
2018-12-29T02:59:46.930Z,30.23
2018-12-29T03:02:34.230Z,32.80
2018-12-29T03:05:21.499Z,29.87
2018-12-29T03:08:08.315Z,29.97
2018-12-29T03:10:55.299Z,32.17
2018-12-29T03:13:42.258Z,29.77
2018-12-29T03:16:29.739Z,32.17
2018-12-29T03:19:16.753Z,29.43
2018-12-29T03:22:03.674Z,30.83
2018-12-29T03:24:50.433Z,31.97
2018-12-29T03:27:37.459Z,29.23
2018-12-29T03:30:24.640Z,30.87
2018-12-29T03:33:11.785Z,29.03
2018-12-29T03:35:58.770Z,29.03
2018-12-29T03:38:46.057Z,30.67
2018-12-29T03:41:33.574Z,27.83
2018-12-29T03:44:20.786Z,27.77
2018-12-29T03:47:07.747Z,31.00
2018-12-29T03:49:55.058Z,28.77
2018-12-29T03:52:42.289Z,28.37
2018-12-29T03:55:29.566Z,28.53
2018-12-29T03:58:16.673Z,28.43
2018-12-29T04:01:03.943Z,32.17
2018-12-29T04:03:50.972Z,29.87
2018-12-29T04:06:38.263Z,29.37
2018-12-29T04:09:32.507Z,27.13
2018-12-29T04:12:19.694Z,27.13
2018-12-29T04:15:07.070Z,30.63
2018-12-29T04:17:53.700Z,29.77
2018-12-29T04:20:40.374Z,25.67
2018-12-29T04:23:27.769Z,28.37
2018-12-29T04:26:15.037Z,28.23
2018-12-29T04:29:02.050Z,29.17
2018-12-29T04:31:49.189Z,27.57
2018-12-29T04:34:36.511Z,30.07
2018-12-29T04:37:23.801Z,30.70
2018-12-29T04:40:10.974Z,30.40
2018-12-29T04:42:58.035Z,30.00
2018-12-29T04:45:45.256Z,27.13
2018-12-29T04:48:32.257Z,30.17
2018-12-29T04:51:19.742Z,31.90
2018-12-29T04:54:06.973Z,31.30
2018-12-29T04:56:53.964Z,31.17
2018-12-29T04:59:41.211Z,29.30
2018-12-29T05:02:28.400Z,32.20
2018-12-29T05:05:15.350Z,32.20
2018-12-29T05:08:02.418Z,34.10
2018-12-29T05:10:49.845Z,34.03
2018-12-29T05:13:37.096Z,34.20
2018-12-29T05:16:24.295Z,37.00
2018-12-29T05:19:11.616Z,35.47
2018-12-29T05:21:58.313Z,36.83
2018-12-29T05:24:45.550Z,35.10
2018-12-29T05:27:32.888Z,36.13
2018-12-29T05:30:19.905Z,40.43
2018-12-29T05:33:06.906Z,37.97
2018-12-29T05:35:54.135Z,39.20
2018-12-29T05:38:41.170Z,40.90
2018-12-29T05:41:28.523Z,39.90
2018-12-29T05:44:15.485Z,34.97
2018-12-29T05:47:02.510Z,39.87
2018-12-29T05:49:49.414Z,43.30
2018-12-29T05:52:36.744Z,43.93
2018-12-29T05:55:23.750Z,41.30
2018-12-29T05:58:10.747Z,39.07
2018-12-29T06:00:57.401Z,43.23
2018-12-29T06:03:44.413Z,39.10
2018-12-29T06:06:32.037Z,36.60
2018-12-29T06:09:19.101Z,47.80
2018-12-29T06:12:06.297Z,40.07
2018-12-29T06:14:53.362Z,42.37
2018-12-29T06:17:40.690Z,42.90
2018-12-29T06:20:27.861Z,42.70
2018-12-29T06:23:15.073Z,49.80
2018-12-29T06:26:02.325Z,45.80
2018-12-29T06:28:49.528Z,44.23
2018-12-29T06:31:36.227Z,39.67
2018-12-29T06:34:23.309Z,44.77
2018-12-29T06:37:10.383Z,42.27
2018-12-29T06:39:57.711Z,40.43
2018-12-29T06:42:44.990Z,39.57
2018-12-29T06:45:32.225Z,41.03
2018-12-29T06:48:19.276Z,43.63
2018-12-29T06:51:06.649Z,43.43
2018-12-29T06:53:53.383Z,46.63
2018-12-29T06:56:40.699Z,43.50
2018-12-29T06:59:28.046Z,48.57
2018-12-29T07:02:15.072Z,44.03
2018-12-29T07:05:02.052Z,43.17
2018-12-29T07:07:49.277Z,43.50
2018-12-29T07:10:36.580Z,48.53
2018-12-29T07:13:23.527Z,46.93
2018-12-29T07:16:10.547Z,42.80
2018-12-29T07:18:57.954Z,42.27
2018-12-29T07:21:45.217Z,47.60
2018-12-29T07:24:32.436Z,46.20
2018-12-29T07:27:19.879Z,46.83
2018-12-29T07:30:07.740Z,44.63
2018-12-29T07:32:55.058Z,47.53
2018-12-29T07:35:41.961Z,49.13
2018-12-29T07:38:29.369Z,45.43
2018-12-29T07:41:16.739Z,49.43
2018-12-29T07:44:03.897Z,44.47
2018-12-29T07:46:50.840Z,49.07
2018-12-29T07:49:38.131Z,45.20
2018-12-29T07:52:25.164Z,44.70
2018-12-29T07:55:12.522Z,38.67
2018-12-29T07:57:59.253Z,43.97
2018-12-29T08:00:45.915Z,60.83
2018-12-29T08:03:32.684Z,46.37
2018-12-29T08:06:19.749Z,47.27
2018-12-29T08:09:07.616Z,45.03
2018-12-29T08:11:54.603Z,49.37
2018-12-29T08:14:42.153Z,46.47
2018-12-29T08:17:29.520Z,42.87
2018-12-29T08:20:16.479Z,45.97
2018-12-29T08:23:03.481Z,41.40
2018-12-29T08:25:50.738Z,48.23
2018-12-29T08:28:37.861Z,54.43
2018-12-29T08:31:24.841Z,61.27
2018-12-29T08:34:11.625Z,62.20
2018-12-29T08:36:58.928Z,44.20
2018-12-29T08:39:45.877Z,46.93
2018-12-29T08:42:32.976Z,41.10
2018-12-29T08:45:20.073Z,47.67
2018-12-29T08:48:07.371Z,40.47
2018-12-29T08:50:54.358Z,40.80
2018-12-29T08:53:41.450Z,42.53
2018-12-29T08:56:28.268Z,41.47
2018-12-29T08:59:15.270Z,43.93
2018-12-29T09:02:05.049Z,51.70
2018-12-29T09:04:52.968Z,49.97
2018-12-29T09:07:40.384Z,44.47
2018-12-29T09:10:27.555Z,50.67
2018-12-29T09:13:15.055Z,44.60
2018-12-29T09:16:02.592Z,42.80
2018-12-29T09:18:50.503Z,45.30
2018-12-29T09:21:38.105Z,44.17
2018-12-29T09:24:25.647Z,51.47
2018-12-29T09:27:12.960Z,43.13
2018-12-29T09:29:59.653Z,44.40
2018-12-29T09:32:46.897Z,43.37
2018-12-29T09:35:34.125Z,39.97
2018-12-29T09:38:21.070Z,38.23
2018-12-29T09:41:08.220Z,36.13
2018-12-29T09:43:55.102Z,39.10
2018-12-29T09:46:42.537Z,39.90
2018-12-29T09:49:29.529Z,38.37
2018-12-29T09:52:16.811Z,43.20
2018-12-29T09:55:04.729Z,39.77
2018-12-29T09:57:52.029Z,39.27
2018-12-29T10:00:39.205Z,38.43
2018-12-29T10:03:26.318Z,42.13
2018-12-29T10:06:13.251Z,36.20
2018-12-29T10:09:00.513Z,38.00
2018-12-29T10:11:47.880Z,36.03
2018-12-29T10:14:35.158Z,36.87
2018-12-29T10:17:26.928Z,38.13
2018-12-29T10:20:11.006Z,37.27
2018-12-29T10:22:58.458Z,36.73
2018-12-29T10:25:45.804Z,34.77
2018-12-29T10:28:32.921Z,39.17
2018-12-29T10:31:20.158Z,35.23
2018-12-29T10:34:07.352Z,36.20
2018-12-29T10:36:54.338Z,35.33
2018-12-29T10:39:42.116Z,34.83
2018-12-29T10:42:29.295Z,34.77
2018-12-29T10:45:16.344Z,38.37
2018-12-29T10:48:03.922Z,36.63
2018-12-29T10:50:51.202Z,37.60
2018-12-29T10:53:38.796Z,37.23
2018-12-29T10:56:26.342Z,36.33
2018-12-29T10:59:13.517Z,37.00
2018-12-29T11:02:01.021Z,36.97
2018-12-29T11:04:47.909Z,33.37
2018-12-29T11:07:34.965Z,43.27
2018-12-29T11:10:22.031Z,32.07
2018-12-29T11:13:09.033Z,31.53
2018-12-29T11:15:56.123Z,33.43
2018-12-29T11:18:43.044Z,34.53
2018-12-29T11:21:31.783Z,34.30
2018-12-29T11:24:18.861Z,34.53
2018-12-29T11:27:06.292Z,33.80
2018-12-29T11:29:53.223Z,33.27
2018-12-29T11:32:40.213Z,32.90
2018-12-29T11:35:28.912Z,30.57
2018-12-29T11:38:16.517Z,32.17
2018-12-29T11:41:03.468Z,27.27
2018-12-29T11:43:51.218Z,26.60
2018-12-29T11:46:38.864Z,26.97
2018-12-29T11:49:26.481Z,28.38
2018-12-29T11:52:14.268Z,26.73
2018-12-29T11:55:02.319Z,25.68
2018-12-29T11:57:50.039Z,27.25
2018-12-29T12:00:37.658Z,25.92
2018-12-29T12:03:25.234Z,25.10
2018-12-29T12:06:12.734Z,27.65
2018-12-29T12:09:00.281Z,27.95
2018-12-29T12:11:48.000Z,26.80
2018-12-29T12:14:35.864Z,25.60
2018-12-29T12:17:23.957Z,27.45
2018-12-29T12:20:11.491Z,26.60
2018-12-29T12:22:58.990Z,22.95
2018-12-29T12:25:46.108Z,20.33
2018-12-29T12:28:33.414Z,19.60
2018-12-29T12:31:20.667Z,20.37
2018-12-29T12:34:08.161Z,19.87
2018-12-29T12:36:55.830Z,20.70
2018-12-29T12:39:43.076Z,21.33
2018-12-29T12:42:30.045Z,24.70
2018-12-29T12:45:17.162Z,26.23
2018-12-29T12:48:05.110Z,25.20
2018-12-29T12:50:52.377Z,25.60
2018-12-29T12:53:39.567Z,25.20
2018-12-29T12:56:26.618Z,25.70
2018-12-29T12:59:13.609Z,28.87
2018-12-29T13:02:00.936Z,25.93
2018-12-29T13:04:48.642Z,27.10
2018-12-29T13:07:35.661Z,25.17
2018-12-29T13:10:23.083Z,25.23
2018-12-29T13:13:10.290Z,25.07
2018-12-29T13:15:57.919Z,27.33
2018-12-29T13:18:44.971Z,26.70
2018-12-29T13:21:32.245Z,26.40
2018-12-29T13:24:19.788Z,29.03
2018-12-29T13:27:07.374Z,27.33
2018-12-29T13:29:54.412Z,28.93
2018-12-29T13:32:41.716Z,28.00
2018-12-29T13:35:29.128Z,25.83
2018-12-29T13:38:16.695Z,26.27
2018-12-29T13:41:04.053Z,26.07
2018-12-29T13:43:51.474Z,25.37
2018-12-29T13:46:39.379Z,24.40
2018-12-29T13:49:26.779Z,26.00
2018-12-29T13:52:14.213Z,28.80
2018-12-29T13:55:01.654Z,45.87
2018-12-29T13:57:48.589Z,33.30
2018-12-29T14:00:35.591Z,37.33
2018-12-29T14:03:23.417Z,35.77
2018-12-29T14:06:10.790Z,34.63
2018-12-29T14:08:58.049Z,32.37
2018-12-29T14:11:45.088Z,27.03
2018-12-29T14:14:32.128Z,28.67
2018-12-29T14:17:19.111Z,26.80
2018-12-29T14:20:06.422Z,26.37
2018-12-29T14:22:53.850Z,30.40
2018-12-29T14:25:41.053Z,31.40
2018-12-29T14:28:28.386Z,32.87
2018-12-29T14:31:15.145Z,31.00
2018-12-29T14:34:02.181Z,29.70
2018-12-29T14:36:49.192Z,31.30
2018-12-29T14:39:36.451Z,30.67
2018-12-29T14:42:23.714Z,32.37
2018-12-29T14:45:10.719Z,33.07
2018-12-29T14:47:57.945Z,31.77
2018-12-29T14:50:45.107Z,34.80
2018-12-29T14:53:32.113Z,34.83
2018-12-29T14:56:19.677Z,32.53
2018-12-29T14:59:07.091Z,33.83
2018-12-29T15:01:54.500Z,32.77
2018-12-29T15:04:41.490Z,33.77
2018-12-29T15:07:28.822Z,37.17
2018-12-29T15:10:15.968Z,35.57
2018-12-29T15:13:03.252Z,38.20
2018-12-29T15:15:50.558Z,39.40
2018-12-29T15:18:43.494Z,41.17
2018-12-29T15:21:26.465Z,40.03
2018-12-29T15:24:13.522Z,36.50
2018-12-29T15:27:01.311Z,40.77
2018-12-29T15:29:48.788Z,39.53
2018-12-29T15:32:35.783Z,50.23
2018-12-29T15:35:23.125Z,42.27
2018-12-29T15:38:10.486Z,44.20
2018-12-29T15:40:58.021Z,48.80
2018-12-29T15:43:45.415Z,47.90
2018-12-29T15:46:32.657Z,46.20
2018-12-29T15:49:19.849Z,44.63
2018-12-29T15:52:06.821Z,39.57
2018-12-29T15:54:54.155Z,42.20
2018-12-29T15:57:41.278Z,49.00
2018-12-29T16:00:28.306Z,48.20
2018-12-29T16:03:15.543Z,49.80
2018-12-29T16:06:02.622Z,49.70
2018-12-29T16:08:49.662Z,54.27
2018-12-29T16:11:36.947Z,49.50
2018-12-29T16:14:24.543Z,45.70
2018-12-29T16:17:11.995Z,49.13
2018-12-29T16:19:59.218Z,45.67
2018-12-29T16:22:46.488Z,47.07
2018-12-29T16:25:33.597Z,95.03
2018-12-29T16:28:20.883Z,77.67
2018-12-29T16:31:07.669Z,56.50
2018-12-29T16:33:54.965Z,52.90
2018-12-29T16:36:42.252Z,81.07
2018-12-29T16:39:29.252Z,65.23
2018-12-29T16:42:16.599Z,43.97
2018-12-29T16:45:04.060Z,45.20
2018-12-29T16:47:51.422Z,41.87
2018-12-29T16:50:38.714Z,40.80
2018-12-29T16:53:29.266Z,48.87
2018-12-29T16:56:14.316Z,41.70
2018-12-29T16:59:01.610Z,39.47
2018-12-29T17:01:48.676Z,40.87
2018-12-29T17:04:36.055Z,39.23
2018-12-29T17:07:23.101Z,53.40
2018-12-29T17:10:10.217Z,56.83
2018-12-29T17:12:57.475Z,48.33
2018-12-29T17:15:44.279Z,43.77
2018-12-29T17:18:31.835Z,41.37
2018-12-29T17:21:20.693Z,38.83
2018-12-29T17:24:08.071Z,39.20
2018-12-29T17:26:55.252Z,36.93
2018-12-29T17:29:42.530Z,40.07
2018-12-29T17:32:29.919Z,47.37
2018-12-29T17:35:17.274Z,85.63
2018-12-29T17:38:04.972Z,68.93
2018-12-29T17:40:52.569Z,46.50
2018-12-29T17:43:39.698Z,43.83
2018-12-29T17:46:26.644Z,42.80
2018-12-29T17:49:13.647Z,38.67
2018-12-29T17:52:01.297Z,45.60
2018-12-29T17:54:48.334Z,33.87
2018-12-29T17:57:35.650Z,31.87
2018-12-29T18:00:22.963Z,31.20
2018-12-29T18:03:10.469Z,30.13
2018-12-29T18:05:57.386Z,30.40
2018-12-29T18:08:45.028Z,30.30
2018-12-29T18:11:32.442Z,30.50
2018-12-29T18:14:19.578Z,28.37
2018-12-29T18:17:06.699Z,29.57
2018-12-29T18:19:53.879Z,34.10
2018-12-29T18:22:41.116Z,28.43
2018-12-29T18:25:28.415Z,28.90
2018-12-29T18:28:15.402Z,30.40
2018-12-29T18:31:02.504Z,31.73
2018-12-29T18:33:49.517Z,29.17
2018-12-29T18:36:36.885Z,30.00
2018-12-29T18:39:24.131Z,28.70
2018-12-29T18:42:11.077Z,33.73
2018-12-29T18:44:58.427Z,32.90
2018-12-29T18:47:46.081Z,31.10
2018-12-29T18:50:32.883Z,31.63
2018-12-29T18:53:19.886Z,30.17
2018-12-29T18:56:06.908Z,29.70
2018-12-29T18:58:53.935Z,29.50
2018-12-29T19:01:40.912Z,27.00
2018-12-29T19:04:28.245Z,29.00
2018-12-29T19:07:15.556Z,27.27
2018-12-29T19:10:02.490Z,25.90
2018-12-29T19:12:49.782Z,25.70
2018-12-29T19:15:38.947Z,30.00
2018-12-29T19:18:26.411Z,29.43
2018-12-29T19:21:13.964Z,30.07
2018-12-29T19:24:01.123Z,30.30
2018-12-29T19:26:48.869Z,30.03
2018-12-29T19:29:35.930Z,26.87
2018-12-29T19:32:23.428Z,26.87
2018-12-29T19:35:11.052Z,28.53
2018-12-29T19:37:58.182Z,30.37
2018-12-29T19:40:45.166Z,29.77
2018-12-29T19:43:32.729Z,31.03
2018-12-29T19:46:20.206Z,31.40
2018-12-29T19:49:07.474Z,30.13
2018-12-29T19:51:54.484Z,32.17
2018-12-29T19:54:41.834Z,28.67
2018-12-29T19:57:29.360Z,27.47
2018-12-29T20:00:16.507Z,26.27
2018-12-29T20:03:04.179Z,27.73
2018-12-29T20:05:51.480Z,27.77
2018-12-29T20:08:38.517Z,28.63
2018-12-29T20:11:25.803Z,26.20
2018-12-29T20:14:13.208Z,25.63
2018-12-29T20:17:00.189Z,28.30
2018-12-29T20:19:47.401Z,28.37
2018-12-29T20:22:34.773Z,29.23
2018-12-29T20:25:22.141Z,31.67
2018-12-29T20:28:09.322Z,27.73
2018-12-29T20:30:56.542Z,26.80
2018-12-29T20:33:44.171Z,28.83
2018-12-29T20:36:31.470Z,28.43
2018-12-29T20:39:18.751Z,27.27
2018-12-29T20:42:05.985Z,28.47
2018-12-29T20:44:53.328Z,27.50
2018-12-29T20:47:40.713Z,26.67
2018-12-29T20:50:27.994Z,26.47
2018-12-29T20:53:15.227Z,27.73
2018-12-29T20:56:02.642Z,32.73
2018-12-29T20:58:49.690Z,32.93
2018-12-29T21:01:36.984Z,28.20
2018-12-29T21:04:24.140Z,28.40
2018-12-29T21:07:11.201Z,29.60
2018-12-29T21:09:58.515Z,26.73
2018-12-29T21:12:46.099Z,23.63
2018-12-29T21:15:33.007Z,25.17
2018-12-29T21:18:20.317Z,25.30
2018-12-29T21:21:07.694Z,25.77
2018-12-29T21:23:54.934Z,22.97
2018-12-29T21:26:42.273Z,23.10
2018-12-29T21:29:29.390Z,19.43
2018-12-29T21:32:16.571Z,22.47
2018-12-29T21:35:04.199Z,18.57
2018-12-29T21:37:51.470Z,18.93
2018-12-29T21:40:38.522Z,18.37
2018-12-29T21:43:25.940Z,19.33
2018-12-29T21:46:16.066Z,20.57
2018-12-29T21:49:03.381Z,18.10
2018-12-29T21:51:50.914Z,18.77
2018-12-29T21:54:38.423Z,18.00
2018-12-29T21:57:25.545Z,19.53
2018-12-29T22:00:12.910Z,17.77
2018-12-29T22:03:00.088Z,14.77
2018-12-29T22:05:47.430Z,15.13
2018-12-29T22:08:34.573Z,15.77
2018-12-29T22:11:22.439Z,18.40
2018-12-29T22:14:09.398Z,19.13
2018-12-29T22:16:56.649Z,15.03
2018-12-29T22:19:44.155Z,15.87
2018-12-29T22:22:31.333Z,15.30
2018-12-29T22:25:18.605Z,16.03
2018-12-29T22:28:05.888Z,16.10
2018-12-29T22:30:53.289Z,16.27
2018-12-29T22:33:40.647Z,16.07
2018-12-29T22:36:27.725Z,16.07
2018-12-29T22:39:14.909Z,17.17
2018-12-29T22:42:02.415Z,16.40
2018-12-29T22:44:49.177Z,18.23
2018-12-29T22:47:36.153Z,20.03
2018-12-29T22:50:23.186Z,20.33
2018-12-29T22:53:10.147Z,16.00
2018-12-29T22:55:57.438Z,19.50
2018-12-29T22:58:44.618Z,16.17
2018-12-29T23:01:31.925Z,15.67
2018-12-29T23:04:19.180Z,16.53
2018-12-29T23:07:06.523Z,15.23
2018-12-29T23:09:53.582Z,17.80
2018-12-29T23:12:40.899Z,17.17
2018-12-29T23:15:28.020Z,16.20
2018-12-29T23:18:14.967Z,16.10
2018-12-29T23:21:02.576Z,13.17
2018-12-29T23:23:49.625Z,14.37
2018-12-29T23:26:37.386Z,16.00
2018-12-29T23:29:24.282Z,16.87
2018-12-29T23:32:11.275Z,14.03
2018-12-29T23:34:58.777Z,13.17
2018-12-29T23:37:46.051Z,15.37
2018-12-29T23:40:33.076Z,13.63
2018-12-29T23:43:20.185Z,13.87
2018-12-29T23:46:07.651Z,15.27
2018-12-29T23:48:54.676Z,14.63
2018-12-29T23:51:41.977Z,14.70
2018-12-29T23:54:29.245Z,14.97
2018-12-29T23:57:16.646Z,14.67
